createdAt,value
2018-01-15T00:00:03.431Z,4.00
2018-01-15T00:02:31.061Z,4.00
2018-01-15T00:04:58.685Z,4.00
2018-01-15T00:07:26.304Z,4.00
2018-01-15T00:09:54.148Z,4.00
2018-01-15T00:12:21.785Z,3.90
2018-01-15T00:14:49.377Z,4.00
2018-01-15T00:17:17.024Z,4.00
2018-01-15T00:19:44.680Z,4.00
2018-01-15T00:22:14.265Z,4.00
2018-01-15T00:24:41.905Z,4.00
2018-01-15T00:27:10.273Z,4.00
2018-01-15T00:29:37.874Z,4.00
2018-01-15T00:32:05.485Z,4.00
2018-01-15T00:34:33.092Z,4.00
2018-01-15T00:37:00.724Z,4.00
2018-01-15T00:39:28.324Z,4.00
2018-01-15T00:41:55.912Z,4.00
2018-01-15T00:44:23.528Z,4.00
2018-01-15T00:46:51.884Z,4.10
2018-01-15T00:49:20.286Z,4.10
2018-01-15T00:51:48.635Z,4.10
2018-01-15T00:54:17.002Z,4.10
2018-01-15T00:56:44.632Z,4.00
2018-01-15T00:59:12.227Z,4.00
2018-01-15T01:01:39.869Z,4.00
2018-01-15T01:04:07.477Z,4.00
2018-01-15T01:06:35.839Z,4.00
2018-01-15T01:09:03.484Z,3.90
2018-01-15T01:11:32.588Z,3.90
2018-01-15T01:14:00.215Z,3.90
2018-01-15T01:16:27.820Z,3.90
2018-01-15T01:18:55.408Z,3.80
2018-01-15T01:21:23.029Z,3.80
2018-01-15T01:23:51.388Z,3.80
2018-01-15T01:26:19.014Z,3.70
2018-01-15T01:28:46.612Z,3.80
2018-01-15T01:31:14.208Z,3.80
2018-01-15T01:33:42.596Z,3.90
2018-01-15T01:36:10.988Z,3.90
2018-01-15T01:38:38.623Z,3.80
2018-01-15T01:41:06.984Z,3.90
2018-01-15T01:43:35.344Z,3.90
2018-01-15T01:46:02.964Z,3.80
2018-01-15T01:48:30.557Z,3.90
2018-01-15T01:50:58.181Z,3.90
2018-01-15T01:53:25.773Z,3.80
2018-01-15T01:55:53.390Z,3.80
2018-01-15T01:58:21.748Z,3.80
2018-01-15T02:00:49.377Z,3.70
2018-01-15T02:03:16.975Z,3.80
2018-01-15T02:05:44.600Z,3.80
2018-01-15T02:08:12.233Z,3.80
2018-01-15T02:10:39.835Z,3.80
2018-01-15T02:13:07.455Z,3.80
2018-01-15T02:15:35.040Z,3.80
2018-01-15T02:18:02.673Z,3.80
2018-01-15T02:20:30.313Z,3.90
2018-01-15T02:22:58.667Z,3.90
2018-01-15T02:25:26.291Z,3.90
2018-01-15T02:27:53.900Z,3.90
2018-01-15T02:30:22.290Z,3.80
2018-01-15T02:32:50.652Z,3.80
2018-01-15T02:35:18.265Z,3.80
2018-01-15T02:37:45.900Z,3.80
2018-01-15T02:40:14.257Z,3.80
2018-01-15T02:42:42.652Z,3.80
2018-01-15T02:45:11.016Z,3.90
2018-01-15T02:47:38.616Z,3.80
2018-01-15T02:50:06.235Z,3.90
2018-01-15T02:52:33.824Z,3.90
2018-01-15T02:55:01.466Z,3.90
2018-01-15T02:57:29.827Z,3.90
2018-01-15T02:59:57.458Z,3.90
2018-01-15T03:02:25.053Z,3.90
2018-01-15T03:04:52.679Z,3.90
2018-01-15T03:07:20.301Z,3.90
2018-01-15T03:09:48.656Z,4.00
2018-01-15T03:12:16.289Z,3.90
2018-01-15T03:14:43.880Z,4.00
2018-01-15T03:17:12.241Z,4.00
2018-01-15T03:19:39.881Z,3.90
2018-01-15T03:22:07.474Z,4.00
2018-01-15T03:24:35.106Z,4.00
2018-01-15T03:27:02.700Z,4.00
2018-01-15T03:29:30.297Z,4.00
2018-01-15T03:31:57.926Z,4.00
2018-01-15T03:34:26.288Z,4.00
2018-01-15T03:36:53.908Z,4.00
2018-01-15T03:39:21.512Z,4.00
2018-01-15T03:41:49.134Z,4.00
2018-01-15T03:44:16.728Z,4.00
2018-01-15T03:46:44.361Z,4.00
2018-01-15T03:49:11.968Z,4.00
2018-01-15T03:51:39.568Z,3.90
2018-01-15T03:54:07.193Z,4.00
2018-01-15T03:56:35.557Z,4.00
2018-01-15T03:59:03.168Z,3.90
2018-01-15T04:01:30.764Z,4.00
2018-01-15T04:03:58.393Z,4.00
2018-01-15T04:06:25.989Z,4.00
2018-01-15T04:08:53.584Z,4.00
2018-01-15T04:11:21.992Z,4.00
2018-01-15T04:13:49.591Z,3.90
2018-01-15T04:16:17.217Z,4.00
2018-01-15T04:18:44.823Z,4.00
2018-01-15T04:21:13.951Z,4.00
2018-01-15T04:23:42.317Z,4.00
2018-01-15T04:26:10.673Z,4.00
2018-01-15T04:28:39.798Z,3.90
2018-01-15T04:31:08.166Z,4.00
2018-01-15T04:33:36.563Z,4.00
2018-01-15T04:36:04.167Z,3.90
2018-01-15T04:38:31.800Z,4.00
2018-01-15T04:40:59.420Z,4.00
2018-01-15T04:43:27.012Z,4.00
2018-01-15T04:45:54.624Z,4.00
2018-01-15T04:48:22.241Z,4.00
2018-01-15T04:50:49.897Z,4.00
2018-01-15T04:53:17.489Z,4.00
2018-01-15T04:55:45.104Z,4.00
2018-01-15T04:58:13.460Z,4.00
2018-01-15T05:00:41.879Z,4.00
2018-01-15T05:03:09.476Z,3.90
2018-01-15T05:05:37.069Z,4.00
2018-01-15T05:08:05.464Z,4.00
2018-01-15T05:10:33.838Z,4.00
2018-01-15T05:13:02.227Z,4.00
2018-01-15T05:15:29.819Z,3.90
2018-01-15T05:17:57.447Z,4.00
2018-01-15T05:20:25.036Z,4.00
2018-01-15T05:22:52.633Z,4.00
2018-01-15T05:25:21.061Z,4.00
2018-01-15T05:27:48.656Z,3.90
2018-01-15T05:30:16.285Z,4.00
2018-01-15T05:32:43.892Z,4.00
2018-01-15T05:35:11.507Z,4.00
2018-01-15T05:37:39.160Z,4.00
2018-01-15T05:40:06.792Z,4.00
2018-01-15T05:42:35.176Z,4.00
2018-01-15T05:45:03.536Z,4.00
2018-01-15T05:47:31.192Z,4.00
2018-01-15T05:49:58.784Z,4.00
2018-01-15T05:52:27.164Z,4.00
2018-01-15T05:54:55.852Z,4.00
2018-01-15T05:57:24.249Z,4.00
2018-01-15T05:59:51.848Z,3.90
2018-01-15T06:02:19.472Z,4.00
2018-01-15T06:04:47.067Z,4.00
2018-01-15T06:07:14.660Z,4.00
2018-01-15T06:09:43.048Z,4.00
2018-01-15T06:12:11.417Z,4.00
2018-01-15T06:14:39.809Z,3.90
2018-01-15T06:17:08.169Z,3.90
2018-01-15T06:19:36.608Z,4.00
2018-01-15T06:22:04.201Z,3.90
2018-01-15T06:24:31.816Z,4.00
2018-01-15T06:26:59.437Z,4.00
2018-01-15T06:29:27.816Z,4.00
2018-01-15T06:31:56.180Z,4.00
2018-01-15T06:34:24.535Z,4.00
2018-01-15T06:36:52.156Z,3.90
2018-01-15T06:39:19.764Z,4.00
2018-01-15T06:41:47.392Z,4.00
2018-01-15T06:44:14.980Z,4.10
2018-01-15T06:46:42.616Z,4.10
2018-01-15T06:49:10.215Z,4.10
2018-01-15T06:51:37.836Z,4.00
2018-01-15T06:54:05.431Z,4.00
2018-01-15T06:56:33.049Z,4.00
2018-01-15T06:59:00.632Z,4.00
2018-01-15T07:01:28.262Z,4.00
2018-01-15T07:03:55.950Z,4.00
2018-01-15T07:06:23.580Z,4.00
2018-01-15T07:08:51.180Z,4.00
2018-01-15T07:11:18.806Z,4.00
2018-01-15T07:13:46.401Z,4.00
2018-01-15T07:16:14.001Z,4.00
2018-01-15T07:18:42.405Z,4.00
2018-01-15T07:21:10.002Z,3.90
2018-01-15T07:23:37.626Z,4.00
2018-01-15T07:26:05.217Z,4.00
2018-01-15T07:28:32.885Z,4.00
2018-01-15T07:31:00.496Z,4.00
2018-01-15T07:33:28.859Z,4.10
2018-01-15T07:35:56.481Z,4.00
2018-01-15T07:38:24.076Z,4.00
2018-01-15T07:40:51.706Z,4.00
2018-01-15T07:43:19.313Z,4.00
2018-01-15T07:45:47.700Z,4.00
2018-01-15T07:48:16.059Z,4.00
2018-01-15T07:50:44.484Z,4.00
2018-01-15T07:53:12.158Z,4.00
2018-01-15T07:55:39.763Z,4.00
2018-01-15T07:58:07.389Z,4.00
2018-01-15T08:00:35.044Z,4.00
2018-01-15T08:03:02.685Z,4.00
2018-01-15T08:05:30.279Z,4.10
2018-01-15T08:07:57.915Z,4.10
2018-01-15T08:10:25.557Z,4.00
2018-01-15T08:12:53.193Z,4.00
2018-01-15T08:15:21.594Z,4.00
2018-01-15T08:17:49.197Z,4.00
2018-01-15T08:20:16.846Z,4.10
2018-01-15T08:22:44.436Z,4.10
2018-01-15T08:25:12.213Z,4.10
2018-01-15T08:27:40.603Z,4.20
2018-01-15T08:30:09.009Z,4.20
2018-01-15T08:32:36.646Z,4.20
2018-01-15T08:35:05.010Z,4.30
2018-01-15T08:37:33.404Z,4.30
2018-01-15T08:40:01.000Z,4.20
2018-01-15T08:42:28.655Z,4.30
2018-01-15T08:44:56.255Z,4.40
2018-01-15T08:47:23.856Z,4.40
2018-01-15T08:49:52.252Z,4.40
2018-01-15T08:52:19.863Z,4.30
2018-01-15T08:54:47.595Z,4.40
2018-01-15T08:57:15.230Z,4.40
2018-01-15T08:59:42.824Z,4.40
2018-01-15T09:02:10.444Z,4.50
2018-01-15T09:04:38.108Z,4.50
2018-01-15T09:07:05.700Z,4.50
2018-01-15T09:09:33.329Z,4.50
2018-01-15T09:12:00.930Z,4.60
2018-01-15T09:14:28.800Z,4.60
2018-01-15T09:16:56.389Z,4.70
2018-01-15T09:19:23.988Z,4.70
2018-01-15T09:21:51.612Z,4.70
2018-01-15T09:24:19.220Z,4.70
2018-01-15T09:26:47.118Z,4.70
2018-01-15T09:29:15.098Z,4.80
2018-01-15T09:31:42.948Z,4.80
2018-01-15T09:34:10.929Z,4.80
2018-01-15T09:36:38.795Z,4.80
2018-01-15T09:39:06.653Z,4.80
2018-01-15T09:41:34.627Z,4.80
2018-01-15T09:44:02.487Z,4.80
2018-01-15T09:46:30.358Z,4.80
2018-01-15T09:48:57.953Z,4.90
2018-01-15T09:51:26.368Z,4.90
2018-01-15T09:53:53.949Z,4.90
2018-01-15T09:56:22.175Z,4.90
2018-01-15T09:58:50.537Z,4.90
2018-01-15T10:01:18.925Z,5.00
2018-01-15T10:03:47.288Z,5.00
2018-01-15T10:06:14.914Z,4.90
2018-01-15T10:08:42.676Z,5.00
2018-01-15T10:11:10.297Z,5.10
2018-01-15T10:13:38.668Z,5.10
2018-01-15T10:16:07.056Z,5.10
2018-01-15T10:18:35.739Z,5.20
2018-01-15T10:21:04.128Z,5.20
2018-01-15T10:23:31.733Z,5.20
2018-01-15T10:25:59.348Z,5.30
2018-01-15T10:28:26.932Z,5.30
2018-01-15T10:30:54.554Z,5.40
2018-01-15T10:33:22.919Z,5.40
2018-01-15T10:35:50.548Z,5.30
2018-01-15T10:38:18.140Z,5.40
2018-01-15T10:40:45.772Z,5.50
2018-01-15T10:43:13.361Z,5.50
2018-01-15T10:45:40.964Z,5.50
2018-01-15T10:48:08.587Z,5.60
2018-01-15T10:50:36.953Z,5.60
2018-01-15T10:53:04.573Z,5.60
2018-01-15T10:55:32.176Z,5.70
2018-01-15T10:57:59.849Z,5.70
2018-01-15T11:00:33.114Z,5.70
2018-01-15T11:03:00.741Z,5.70
2018-01-15T11:05:28.319Z,5.70
2018-01-15T11:07:55.918Z,5.80
2018-01-15T11:10:23.536Z,5.80
2018-01-15T11:12:51.133Z,5.80
2018-01-15T11:15:18.768Z,5.80
2018-01-15T11:17:46.373Z,5.90
2018-01-15T11:20:14.764Z,5.90
2018-01-15T11:22:42.348Z,5.90
2018-01-15T11:25:10.042Z,5.90
2018-01-15T11:27:37.692Z,6.00
2018-01-15T11:32:39.217Z,6.00
2018-01-15T11:35:06.936Z,6.10
2018-01-15T11:37:34.798Z,6.10
2018-01-15T11:40:02.388Z,6.10
2018-01-15T11:42:30.829Z,6.20
2018-01-15T11:44:58.515Z,6.20
2018-01-15T11:47:26.136Z,6.30
2018-01-15T11:49:53.737Z,6.30
2018-01-15T11:52:22.867Z,6.30
2018-01-15T11:54:50.463Z,6.20
2018-01-15T11:57:18.237Z,6.30
2018-01-15T11:59:46.009Z,6.40
2018-01-15T12:02:13.779Z,6.40
2018-01-15T12:04:41.392Z,6.40
2018-01-15T12:07:08.993Z,6.50
2018-01-15T12:09:36.871Z,6.50
2018-01-15T12:12:04.488Z,6.50
2018-01-15T12:14:32.128Z,6.50
2018-01-15T12:17:00.648Z,6.60
2018-01-15T12:19:28.269Z,6.50
2018-01-15T12:21:56.640Z,6.60
2018-01-15T12:24:25.039Z,6.60
2018-01-15T12:26:52.644Z,6.60
2018-01-15T12:29:20.267Z,6.60
2018-01-15T12:31:48.174Z,6.70
2018-01-15T12:34:15.812Z,6.70
2018-01-15T12:36:43.405Z,6.70
2018-01-15T12:39:11.957Z,6.70
2018-01-15T12:41:39.543Z,6.70
2018-01-15T12:44:07.160Z,6.80
2018-01-15T12:46:34.764Z,6.80
2018-01-15T12:49:02.396Z,6.80
2018-01-15T12:51:30.006Z,6.80
2018-01-15T12:53:58.395Z,6.90
2018-01-15T12:56:26.771Z,6.90
2018-01-15T12:58:55.164Z,6.90
2018-01-15T13:01:22.760Z,6.90
2018-01-15T13:03:50.468Z,6.90
2018-01-15T13:06:19.788Z,6.90
2018-01-15T13:09:07.888Z,7.00
2018-01-15T13:11:35.660Z,6.90
2018-01-15T13:14:04.068Z,7.00
2018-01-15T13:16:32.424Z,7.00
2018-01-15T13:19:00.050Z,7.00
2018-01-15T13:21:27.645Z,7.00
2018-01-15T13:23:55.260Z,7.10
2018-01-15T13:26:22.857Z,7.00
2018-01-15T13:28:51.250Z,7.00
2018-01-15T13:31:18.849Z,7.00
2018-01-15T13:33:46.445Z,7.00
2018-01-15T13:36:14.064Z,7.10
2018-01-15T13:38:41.781Z,7.10
2018-01-15T13:41:10.177Z,7.00
2018-01-15T13:43:38.537Z,7.10
2018-01-15T13:46:06.166Z,7.10
2018-01-15T13:48:33.752Z,7.10
2018-01-15T13:51:01.342Z,7.10
2018-01-15T13:53:29.730Z,7.10
2018-01-15T13:55:58.088Z,7.10
2018-01-15T13:58:25.712Z,7.10
2018-01-15T14:00:53.327Z,7.20
2018-01-15T14:03:21.724Z,7.20
2018-01-15T14:05:49.337Z,7.20
2018-01-15T14:08:16.937Z,7.20
2018-01-15T14:10:44.551Z,7.20
2018-01-15T14:13:12.146Z,7.20
2018-01-15T14:15:40.529Z,7.20
2018-01-15T14:18:08.947Z,7.30
2018-01-15T14:20:36.568Z,7.20
2018-01-15T14:23:04.921Z,7.30
2018-01-15T14:25:32.537Z,7.20
2018-01-15T14:28:00.129Z,7.30
2018-01-15T14:30:27.758Z,7.30
2018-01-15T14:32:55.356Z,7.30
2018-01-15T14:35:23.336Z,7.30
2018-01-15T14:37:50.999Z,7.30
2018-01-15T14:40:18.722Z,7.40
2018-01-15T14:42:46.490Z,7.30
2018-01-15T14:45:14.217Z,7.40
2018-01-15T14:47:42.130Z,7.30
2018-01-15T14:50:09.897Z,7.30
2018-01-15T14:52:37.522Z,7.30
2018-01-15T14:55:05.208Z,7.40
2018-01-15T14:57:33.092Z,7.40
2018-01-15T15:00:00.775Z,7.40
2018-01-15T15:02:28.449Z,7.40
2018-01-15T15:04:56.989Z,7.40
2018-01-15T15:07:24.698Z,7.30
2018-01-15T15:09:53.081Z,7.40
2018-01-15T15:12:21.445Z,7.40
2018-01-15T15:14:49.120Z,7.40
2018-01-15T15:17:17.473Z,7.40
2018-01-15T15:19:45.250Z,7.40
2018-01-15T15:22:12.864Z,7.40
2018-01-15T15:24:40.460Z,7.40
2018-01-15T15:27:08.080Z,7.50
2018-01-15T15:29:35.704Z,7.50
2018-01-15T15:32:04.110Z,7.50
2018-01-15T15:34:31.737Z,7.40
2018-01-15T15:37:00.103Z,7.50
2018-01-15T15:39:27.745Z,7.40
2018-01-15T15:41:55.353Z,7.50
2018-01-15T15:44:22.984Z,7.50
2018-01-15T15:46:50.576Z,7.50
2018-01-15T15:49:18.222Z,7.50
2018-01-15T15:51:46.591Z,7.50
2018-01-15T15:54:14.192Z,7.40
2018-01-15T15:56:41.811Z,7.50
2018-01-15T15:59:09.415Z,7.50
2018-01-15T16:01:37.028Z,7.50
2018-01-15T16:04:04.625Z,7.50
2018-01-15T16:06:32.237Z,7.50
2018-01-15T16:08:59.829Z,7.50
2018-01-15T16:11:28.214Z,7.60
2018-01-15T16:13:55.813Z,7.50
2018-01-15T16:16:23.445Z,7.60
2018-01-15T16:18:51.041Z,7.60
2018-01-15T16:21:18.671Z,7.70
2018-01-15T16:23:46.276Z,7.70
2018-01-15T16:26:13.901Z,7.70
2018-01-15T16:28:41.505Z,7.70
2018-01-15T16:31:09.128Z,7.70
2018-01-15T16:33:36.723Z,7.70
2018-01-15T16:36:04.359Z,7.60
2018-01-15T16:38:31.956Z,7.60
2018-01-15T16:41:00.316Z,7.60
2018-01-15T16:43:27.946Z,7.50
2018-01-15T16:45:55.582Z,7.50
2018-01-15T16:48:23.965Z,7.60
2018-01-15T16:50:51.595Z,7.50
2018-01-15T16:53:19.212Z,7.50
2018-01-15T16:55:46.801Z,7.50
2018-01-15T16:58:14.562Z,7.50
2018-01-15T17:00:42.152Z,7.50
2018-01-15T17:03:10.539Z,7.50
2018-01-15T17:05:38.956Z,7.50
2018-01-15T17:08:06.552Z,7.40
2018-01-15T17:10:34.948Z,7.50
2018-01-15T17:13:02.548Z,7.40
2018-01-15T17:15:30.190Z,7.50
2018-01-15T17:17:58.575Z,7.50
2018-01-15T17:20:26.183Z,7.40
2018-01-15T17:22:53.809Z,7.40
2018-01-15T17:25:21.409Z,7.40
2018-01-15T17:27:49.205Z,7.40
2018-01-15T17:30:17.572Z,7.40
2018-01-15T17:32:46.708Z,7.40
2018-01-15T17:35:14.361Z,7.40
2018-01-15T17:37:41.972Z,7.50
2018-01-15T17:40:09.588Z,7.50
2018-01-15T17:42:37.179Z,7.50
2018-01-15T17:45:04.817Z,7.50
2018-01-15T17:47:32.416Z,7.50
2018-01-15T17:50:00.812Z,7.40
2018-01-15T17:52:28.489Z,7.40
2018-01-15T17:54:57.029Z,7.40
2018-01-15T17:57:25.720Z,7.40
2018-01-15T17:59:53.592Z,7.40
2018-01-15T18:02:21.455Z,7.40
2018-01-15T18:04:49.316Z,7.40
2018-01-15T18:07:17.392Z,7.40
2018-01-15T18:09:45.254Z,7.40
2018-01-15T18:12:13.124Z,7.30
2018-01-15T18:14:40.986Z,7.40
2018-01-15T18:17:08.866Z,7.30
2018-01-15T18:19:37.543Z,7.40
2018-01-15T18:22:05.408Z,7.30
2018-01-15T18:24:33.378Z,7.40
2018-01-15T18:27:01.247Z,7.40
2018-01-15T18:29:29.015Z,7.40
2018-01-15T18:31:56.884Z,7.40
2018-01-15T18:34:24.746Z,7.40
2018-01-15T18:36:52.715Z,7.40
2018-01-15T18:39:20.580Z,7.40
2018-01-15T18:41:48.444Z,7.30
2018-01-15T18:44:16.307Z,7.40
2018-01-15T18:46:44.183Z,7.30
2018-01-15T18:49:12.145Z,7.40
2018-01-15T18:51:40.009Z,7.40
2018-01-15T18:54:07.632Z,7.40
2018-01-15T18:56:35.248Z,7.40
2018-01-15T18:59:02.877Z,7.40
2018-01-15T19:01:30.472Z,7.40
2018-01-15T19:03:58.112Z,7.40
2018-01-15T19:06:25.699Z,7.40
2018-01-15T19:08:54.054Z,7.40
2018-01-15T19:11:21.676Z,7.30
2018-01-15T19:13:49.268Z,7.40
2018-01-15T19:16:16.887Z,7.40
2018-01-15T19:18:44.480Z,7.40
2018-01-15T19:21:12.116Z,7.30
2018-01-15T19:23:39.728Z,7.40
2018-01-15T19:26:07.333Z,7.40
2018-01-15T19:28:34.952Z,7.40
2018-01-15T19:31:02.553Z,7.40
2018-01-15T19:33:30.180Z,7.40
2018-01-15T19:39:01.368Z,7.40
2018-01-15T19:41:39.400Z,7.40
2018-01-15T19:44:12.577Z,7.40
2018-01-15T19:46:45.909Z,7.40
2018-01-15T19:49:19.025Z,7.40
2018-01-15T19:51:52.577Z,7.40
2018-01-15T19:54:26.009Z,7.40
2018-01-15T19:56:59.418Z,7.30
2018-01-15T19:59:33.112Z,7.40
2018-01-15T20:02:06.505Z,7.40
2018-01-15T20:04:40.108Z,7.30
2018-01-15T20:07:13.603Z,7.30
2018-01-15T20:09:47.048Z,7.30
2018-01-15T20:12:14.968Z,7.30
2018-01-15T20:14:42.942Z,7.30
2018-01-15T20:17:10.802Z,7.30
2018-01-15T20:19:38.665Z,7.30
2018-01-15T20:22:06.530Z,7.30
2018-01-15T20:24:34.406Z,7.40
2018-01-15T20:27:02.321Z,7.40
2018-01-15T20:29:30.957Z,7.40
2018-01-15T20:31:58.818Z,7.30
2018-01-15T20:34:26.692Z,7.30
2018-01-15T20:36:54.659Z,7.30
2018-01-15T20:39:22.524Z,7.30
2018-01-15T20:41:50.492Z,7.30
2018-01-15T20:44:18.315Z,7.30
2018-01-15T20:46:46.229Z,7.40
2018-01-15T20:49:16.098Z,7.40
2018-01-15T20:51:44.219Z,7.40
2018-01-15T20:54:12.084Z,7.40
2018-01-15T20:56:40.047Z,7.40
2018-01-15T20:59:07.911Z,7.40
2018-01-15T21:01:35.781Z,7.40
2018-01-15T21:04:03.754Z,7.40
2018-01-15T21:06:31.665Z,7.40
2018-01-15T21:09:00.405Z,7.40
2018-01-15T21:11:28.370Z,7.40
2018-01-15T21:13:56.346Z,7.40
2018-01-15T21:16:24.173Z,7.50
2018-01-15T21:18:52.076Z,7.40
2018-01-15T21:21:19.938Z,7.40
2018-01-15T21:23:47.812Z,7.40
2018-01-15T21:26:15.679Z,7.40
2018-01-15T21:28:43.605Z,7.40
2018-01-15T21:31:11.512Z,7.40
2018-01-15T21:33:39.484Z,7.30
2018-01-15T21:36:07.348Z,7.40
2018-01-15T21:38:35.215Z,7.40
2018-01-15T21:41:02.832Z,7.40
2018-01-15T21:43:30.560Z,7.30
2018-01-15T21:45:58.183Z,7.40
2018-01-15T21:48:25.789Z,7.30
2018-01-15T21:50:54.184Z,7.40
2018-01-15T21:53:22.545Z,7.40
2018-01-15T21:55:50.897Z,7.40
2018-01-15T21:58:18.524Z,7.40
2018-01-15T22:00:46.419Z,7.40
2018-01-15T22:03:14.397Z,7.40
2018-01-15T22:05:41.988Z,7.40
2018-01-15T22:08:10.376Z,7.40
2018-01-15T22:10:38.731Z,7.40
2018-01-15T22:13:06.324Z,7.30
2018-01-15T22:15:33.951Z,7.40
2018-01-15T22:18:02.317Z,7.40
2018-01-15T22:20:29.962Z,7.40
2018-01-15T22:22:57.552Z,7.40
2018-01-15T22:25:25.178Z,7.40
2018-01-15T22:27:52.773Z,7.40
2018-01-15T22:30:20.365Z,7.40
2018-01-15T22:32:47.985Z,7.40
2018-01-15T22:35:17.785Z,7.40
2018-01-15T22:37:46.319Z,7.40
2018-01-15T22:40:13.912Z,7.40
2018-01-15T22:42:41.542Z,7.40
2018-01-15T22:45:09.152Z,7.40
2018-01-15T22:47:36.744Z,7.40
2018-01-15T22:50:05.124Z,7.40
2018-01-15T22:52:33.482Z,7.40
2018-01-15T22:55:01.868Z,7.40
2018-01-15T22:57:30.240Z,7.50
2018-01-15T22:59:58.652Z,7.50
2018-01-15T23:02:27.006Z,7.50
2018-01-15T23:04:55.403Z,7.40
2018-01-15T23:07:23.782Z,7.50
2018-01-15T23:09:52.152Z,7.40
2018-01-15T23:12:20.556Z,7.50
2018-01-15T23:14:48.163Z,7.40
2018-01-15T23:17:15.805Z,7.40
2018-01-15T23:19:43.391Z,7.40
2018-01-15T23:22:12.474Z,7.50
2018-01-15T23:24:41.021Z,7.50
2018-01-15T23:27:08.637Z,7.40
2018-01-15T23:29:36.252Z,7.50
2018-01-15T23:32:03.925Z,7.50
2018-01-15T23:34:31.558Z,7.50
2018-01-15T23:36:59.142Z,7.50
2018-01-15T23:39:26.728Z,7.60
2018-01-15T23:41:54.342Z,7.60
2018-01-15T23:44:21.934Z,7.60
2018-01-15T23:46:49.605Z,7.60
2018-01-15T23:49:17.180Z,7.60
2018-01-15T23:51:44.799Z,7.60
2018-01-15T23:54:24.355Z,7.60
2018-01-15T23:56:51.947Z,7.70
2018-01-15T23:59:19.568Z,7.70
